createdAt,value
2023-03-11T00:03:43.912Z,83.66
2023-03-11T00:07:08.048Z,83.51
2023-03-11T00:09:35.905Z,83.42
2023-03-11T00:12:23.838Z,83.59
2023-03-11T00:15:33.755Z,83.67
2023-03-11T00:18:25.312Z,83.73
2023-03-11T00:20:52.397Z,83.70
2023-03-11T00:23:20.137Z,83.67
2023-03-11T00:25:48.927Z,83.72
2023-03-11T00:28:17.821Z,83.74
2023-03-11T00:30:46.730Z,83.62
2023-03-11T00:33:15.729Z,83.69
2023-03-11T00:35:45.356Z,83.81
2023-03-11T00:38:17.287Z,83.59
2023-03-11T00:40:46.849Z,83.81
2023-03-11T00:43:15.737Z,83.62
2023-03-11T00:45:44.095Z,83.71
2023-03-11T00:48:13.473Z,84.09
2023-03-11T00:50:41.100Z,84.22
2023-03-11T00:53:08.116Z,84.41
2023-03-11T00:55:36.211Z,84.18
2023-03-11T00:58:06.462Z,84.29
2023-03-11T01:00:34.705Z,84.33
2023-03-11T01:03:02.495Z,84.27
2023-03-11T01:05:32.552Z,84.40
2023-03-11T01:08:00.257Z,84.56
2023-03-11T01:10:28.992Z,84.56
2023-03-11T01:12:56.355Z,84.29
2023-03-11T01:15:33.658Z,84.27
2023-03-11T01:18:02.249Z,84.28
2023-03-11T01:20:29.773Z,83.93
2023-03-11T01:23:02.091Z,83.73
2023-03-11T01:25:29.650Z,83.71
2023-03-11T01:27:57.522Z,84.20
2023-03-11T01:30:25.971Z,84.01
2023-03-11T01:32:54.863Z,84.25
2023-03-11T01:35:25.009Z,84.47
2023-03-11T01:37:53.954Z,84.30
2023-03-11T01:40:27.619Z,84.28
2023-03-11T01:42:55.122Z,84.60
2023-03-11T01:45:41.690Z,84.58
2023-03-11T01:48:11.223Z,84.59
2023-03-11T01:50:47.081Z,84.50
2023-03-11T01:53:17.244Z,84.32
2023-03-11T01:55:45.987Z,84.23
2023-03-11T01:58:19.456Z,84.29
2023-03-11T02:03:40.298Z,83.74
2023-03-11T02:06:11.825Z,83.40
2023-03-11T02:08:41.680Z,82.97
2023-03-11T02:11:12.541Z,82.92
2023-03-11T02:13:41.292Z,82.61
2023-03-11T02:16:09.200Z,81.72
2023-03-11T02:18:38.702Z,82.15
2023-03-11T02:21:31.124Z,81.29
2023-03-11T02:24:17.177Z,80.70
2023-03-11T02:26:56.507Z,80.45
2023-03-11T02:29:26.046Z,80.21
2023-03-11T02:31:53.770Z,80.17
2023-03-11T02:34:33.788Z,79.69
2023-03-11T02:37:01.995Z,79.73
2023-03-11T02:39:39.647Z,78.93
2023-03-11T02:42:18.664Z,78.73
2023-03-11T02:44:49.809Z,78.95
2023-03-11T02:47:18.527Z,78.64
2023-03-11T02:49:45.492Z,78.81
2023-03-11T02:52:13.494Z,78.24
2023-03-11T02:54:40.562Z,78.11
2023-03-11T02:57:08.463Z,78.55
2023-03-11T02:59:36.345Z,78.12
2023-03-11T03:02:04.780Z,77.88
2023-03-11T03:04:31.868Z,77.48
2023-03-11T03:06:59.307Z,77.65
2023-03-11T03:09:26.468Z,77.57
2023-03-11T03:11:53.789Z,76.98
2023-03-11T03:14:21.406Z,77.11
2023-03-11T03:16:49.155Z,76.89
2023-03-11T03:19:19.652Z,77.10
2023-03-11T03:21:46.816Z,76.92
2023-03-11T03:24:14.183Z,76.75
2023-03-11T03:26:41.313Z,76.74
2023-03-11T03:29:08.978Z,77.31
2023-03-11T03:31:36.315Z,77.00
2023-03-11T03:34:03.420Z,77.12
2023-03-11T03:36:30.742Z,77.54
2023-03-11T03:38:59.831Z,77.60
2023-03-11T03:41:29.204Z,77.85
2023-03-11T03:43:56.640Z,77.99
2023-03-11T03:46:24.721Z,78.12
2023-03-11T03:48:51.806Z,78.48
2023-03-11T03:51:19.820Z,78.80
2023-03-11T03:53:47.057Z,78.67
2023-03-11T03:56:16.905Z,78.70
2023-03-11T03:58:45.483Z,78.55
2023-03-11T04:01:13.736Z,78.60
2023-03-11T04:03:42.045Z,78.58
2023-03-11T04:06:16.462Z,78.96
2023-03-11T04:08:43.918Z,78.91
2023-03-11T04:11:11.493Z,78.87
2023-03-11T04:13:38.555Z,78.91
2023-03-11T04:16:07.471Z,78.84
2023-03-11T04:18:35.627Z,79.11
2023-03-11T04:21:07.260Z,79.16
2023-03-11T04:23:34.872Z,79.42
2023-03-11T04:26:02.203Z,79.31
2023-03-11T04:28:29.582Z,79.39
2023-03-11T04:30:56.864Z,79.49
2023-03-11T04:33:23.946Z,79.40
2023-03-11T04:35:51.103Z,79.34
2023-03-11T04:38:18.310Z,79.42
2023-03-11T04:40:45.298Z,79.48
2023-03-11T04:43:12.811Z,79.69
2023-03-11T04:45:41.278Z,79.74
2023-03-11T04:48:08.801Z,79.83
2023-03-11T04:50:35.865Z,79.81
2023-03-11T04:53:03.251Z,80.09
2023-03-11T04:55:30.278Z,80.08
2023-03-11T04:57:57.812Z,80.18
2023-03-11T05:00:25.425Z,80.31
2023-03-11T05:02:52.894Z,80.35
2023-03-11T05:05:20.944Z,80.28
2023-03-11T05:07:48.927Z,80.16
2023-03-11T05:10:22.816Z,80.38
2023-03-11T05:12:51.076Z,80.53
2023-03-11T05:15:19.372Z,80.87
2023-03-11T05:17:47.083Z,80.84
2023-03-11T05:20:15.711Z,81.07
2023-03-11T05:22:43.550Z,80.96
2023-03-11T05:25:11.028Z,80.99
2023-03-11T05:27:38.699Z,81.09
2023-03-11T05:30:06.316Z,81.12
2023-03-11T05:32:34.944Z,81.51
2023-03-11T05:35:02.643Z,81.19
2023-03-11T05:37:32.614Z,81.37
2023-03-11T05:39:59.799Z,81.59
2023-03-11T05:42:27.138Z,81.51
2023-03-11T05:44:54.157Z,81.68
2023-03-11T05:47:21.796Z,81.81
2023-03-11T05:49:49.362Z,81.95
2023-03-11T05:52:17.247Z,81.90
2023-03-11T05:54:44.681Z,81.97
2023-03-11T05:57:12.137Z,81.90
2023-03-11T05:59:39.265Z,81.99
2023-03-11T06:02:06.586Z,82.09
2023-03-11T06:04:34.515Z,82.30
2023-03-11T06:07:01.739Z,82.12
2023-03-11T06:09:29.438Z,82.55
2023-03-11T06:11:56.662Z,82.31
2023-03-11T06:14:24.076Z,81.58
2023-03-11T06:16:51.429Z,81.69
2023-03-11T06:19:20.189Z,81.63
2023-03-11T06:21:47.231Z,81.62
2023-03-11T06:24:14.504Z,81.63
2023-03-11T06:26:41.797Z,81.51
2023-03-11T06:29:14.411Z,81.58
2023-03-11T06:31:42.908Z,81.74
2023-03-11T06:34:11.566Z,81.96
2023-03-11T06:36:38.681Z,82.17
2023-03-11T06:39:05.933Z,81.62
2023-03-11T06:41:36.185Z,82.03
2023-03-11T06:44:04.550Z,82.29
2023-03-11T06:46:33.407Z,81.84
2023-03-11T06:49:00.538Z,82.22
2023-03-11T06:51:27.825Z,82.36
2023-03-11T06:53:55.405Z,82.19
2023-03-11T06:56:23.797Z,82.28
2023-03-11T06:58:52.223Z,82.13
2023-03-11T07:01:25.548Z,82.91
2023-03-11T07:03:53.493Z,82.58
2023-03-11T07:06:24.400Z,82.72
2023-03-11T07:08:53.129Z,82.28
2023-03-11T07:11:26.075Z,82.57
2023-03-11T07:13:54.875Z,82.66
2023-03-11T07:16:24.939Z,82.53
2023-03-11T07:18:53.054Z,82.66
2023-03-11T07:21:23.150Z,82.81
2023-03-11T07:23:57.875Z,83.12
2023-03-11T07:26:26.317Z,82.45
2023-03-11T07:28:55.717Z,82.80
2023-03-11T07:31:26.157Z,83.01
2023-03-11T07:33:55.119Z,82.84
2023-03-11T07:36:24.805Z,82.69
2023-03-11T07:38:59.157Z,83.34
2023-03-11T07:41:27.399Z,83.30
2023-03-11T07:43:56.654Z,83.46
2023-03-11T07:46:25.860Z,83.43
2023-03-11T07:48:53.564Z,83.26
2023-03-11T07:51:29.685Z,83.32
2023-03-11T07:53:58.934Z,83.68
2023-03-11T07:56:28.543Z,83.32
2023-03-11T07:58:55.786Z,83.62
2023-03-11T08:01:25.872Z,83.11
2023-03-11T08:03:59.236Z,83.61
2023-03-11T08:06:31.859Z,83.62
2023-03-11T08:09:01.349Z,83.62
2023-03-11T08:11:32.745Z,83.72
2023-03-11T08:14:00.119Z,83.76
2023-03-11T08:16:27.723Z,84.07
2023-03-11T08:18:55.148Z,83.74
2023-03-11T08:21:25.493Z,83.83
2023-03-11T08:23:53.122Z,83.94
2023-03-11T08:26:22.562Z,83.91
2023-03-11T08:28:50.675Z,84.08
2023-03-11T08:31:20.216Z,83.94
2023-03-11T08:33:51.912Z,83.79
2023-03-11T08:36:19.976Z,84.07
2023-03-11T08:38:47.954Z,84.29
2023-03-11T08:41:15.210Z,83.76
2023-03-11T08:43:43.480Z,83.85
2023-03-11T08:46:38.992Z,83.79
2023-03-11T08:49:06.769Z,84.12
2023-03-11T08:51:35.131Z,84.25
2023-03-11T08:54:03.368Z,84.39
2023-03-11T08:56:31.670Z,84.13
2023-03-11T08:58:59.040Z,83.99
2023-03-11T09:01:26.711Z,84.01
2023-03-11T09:03:53.678Z,84.26
2023-03-11T09:06:21.380Z,84.24
2023-03-11T09:08:50.053Z,84.23
2023-03-11T09:11:18.572Z,84.31
2023-03-11T09:13:46.441Z,84.29
2023-03-11T09:16:16.545Z,84.31
2023-03-11T09:18:44.216Z,84.32
2023-03-11T09:21:11.552Z,84.68
2023-03-11T09:23:41.588Z,84.10
2023-03-11T09:26:09.671Z,84.15
2023-03-11T09:28:36.788Z,84.07
2023-03-11T09:31:04.526Z,83.93
2023-03-11T09:33:31.845Z,84.20
2023-03-11T09:35:59.525Z,84.35
2023-03-11T09:38:27.136Z,84.63
2023-03-11T09:41:07.891Z,84.53
2023-03-11T09:43:45.025Z,84.19
2023-03-11T09:46:25.569Z,84.32
2023-03-11T09:49:01.937Z,84.29
2023-03-11T09:51:33.300Z,84.83
2023-03-11T09:54:05.626Z,84.41
2023-03-11T09:56:35.697Z,84.80
2023-03-11T09:59:07.830Z,84.75
2023-03-11T10:01:37.999Z,84.55
2023-03-11T10:04:20.534Z,84.56
2023-03-11T10:06:48.327Z,84.29
2023-03-11T10:09:39.738Z,84.76
2023-03-11T10:12:46.139Z,84.76
2023-03-11T10:15:28.541Z,84.74
2023-03-11T10:18:05.717Z,84.80
2023-03-11T10:20:40.963Z,84.51
2023-03-11T10:23:27.841Z,85.15
2023-03-11T10:26:13.562Z,85.16
2023-03-11T10:28:49.253Z,84.72
2023-03-11T10:31:20.923Z,84.81
2023-03-11T10:33:55.223Z,84.75
2023-03-11T10:36:27.670Z,84.97
2023-03-11T10:38:56.300Z,84.75
2023-03-11T10:41:36.710Z,84.54
2023-03-11T10:44:17.239Z,84.73
2023-03-11T10:46:44.498Z,85.07
2023-03-11T10:49:16.388Z,84.98
2023-03-11T10:51:48.716Z,84.60
2023-03-11T10:54:33.144Z,84.54
2023-03-11T10:57:06.841Z,84.49
2023-03-11T10:59:46.638Z,84.55
2023-03-11T11:02:31.148Z,84.80
2023-03-11T11:05:29.169Z,84.78
2023-03-11T11:08:08.214Z,84.75
2023-03-11T11:10:41.378Z,84.43
2023-03-11T11:13:08.516Z,84.70
2023-03-11T11:15:40.409Z,84.53
2023-03-11T11:18:19.072Z,84.18
2023-03-11T11:21:02.976Z,84.74
2023-03-11T11:23:35.235Z,84.39
2023-03-11T11:26:06.356Z,84.28
2023-03-11T11:28:35.128Z,84.23
2023-03-11T11:31:06.018Z,84.47
2023-03-11T11:33:40.299Z,84.59
2023-03-11T11:36:16.889Z,84.41
2023-03-11T11:38:44.672Z,84.41
2023-03-11T11:41:21.702Z,84.41
2023-03-11T11:43:55.470Z,84.68
2023-03-11T11:46:37.786Z,84.43
2023-03-11T11:49:22.392Z,83.90
2023-03-11T11:52:20.102Z,84.01
2023-03-11T11:54:55.651Z,84.10
2023-03-11T11:57:24.329Z,84.32
2023-03-11T11:59:51.869Z,84.03
2023-03-11T12:02:22.378Z,83.66
2023-03-11T12:05:02.284Z,83.50
2023-03-11T12:08:05.263Z,83.72
2023-03-11T12:10:45.850Z,83.49
2023-03-11T12:13:30.131Z,83.66
2023-03-11T12:15:57.869Z,83.59
2023-03-11T12:18:35.475Z,83.80
2023-03-11T12:21:12.846Z,83.39
2023-03-11T12:23:59.232Z,83.39
2023-03-11T12:26:34.556Z,83.50
2023-03-11T12:29:24.672Z,83.64
2023-03-11T12:31:54.273Z,83.78
2023-03-11T12:34:25.946Z,83.19
2023-03-11T12:36:55.296Z,83.24
2023-03-11T12:39:29.140Z,83.38
2023-03-11T12:42:25.500Z,83.24
2023-03-11T12:44:54.150Z,82.96
2023-03-11T12:47:29.907Z,82.87
2023-03-11T12:50:35.643Z,83.01
2023-03-11T12:53:17.521Z,83.43
2023-03-11T12:56:04.127Z,83.58
2023-03-11T12:59:06.092Z,82.47
2023-03-11T13:01:42.143Z,83.64
2023-03-11T13:04:37.574Z,83.34
2023-03-11T13:07:32.438Z,83.35
2023-03-11T13:10:13.381Z,83.41
2023-03-11T13:12:52.500Z,82.51
2023-03-11T13:15:22.842Z,82.50
2023-03-11T13:18:04.314Z,82.23
2023-03-11T13:20:43.721Z,81.97
2023-03-11T13:23:33.842Z,82.33
2023-03-11T13:26:19.838Z,82.78
2023-03-11T13:29:04.273Z,82.46
2023-03-11T13:31:35.601Z,82.72
2023-03-11T13:34:16.287Z,82.69
2023-03-11T13:37:06.299Z,82.57
2023-03-11T13:40:14.629Z,82.63
2023-03-11T13:43:21.910Z,81.90
2023-03-11T13:46:15.459Z,82.44
2023-03-11T13:48:50.001Z,82.43
2023-03-11T13:51:24.956Z,82.34
2023-03-11T13:54:03.496Z,81.45
2023-03-11T13:56:39.954Z,81.65
2023-03-11T13:59:23.310Z,81.64
2023-03-11T14:01:52.521Z,82.00
2023-03-11T14:04:37.937Z,81.20
2023-03-11T14:07:29.037Z,81.35
2023-03-11T14:10:19.306Z,81.64
2023-03-11T14:12:47.183Z,81.16
2023-03-11T14:15:20.835Z,81.22
2023-03-11T14:17:48.918Z,81.42
2023-03-11T14:20:31.009Z,81.43
2023-03-11T14:22:58.242Z,80.69
2023-03-11T14:25:37.142Z,80.68
2023-03-11T14:28:06.204Z,80.76
2023-03-11T14:30:35.235Z,81.04
2023-03-11T14:33:24.602Z,80.69
2023-03-11T14:36:05.042Z,80.79
2023-03-11T14:38:33.564Z,81.07
2023-03-11T14:41:03.791Z,81.22
2023-03-11T14:43:35.722Z,81.46
2023-03-11T14:46:04.392Z,81.19
2023-03-11T14:48:44.819Z,81.71
2023-03-11T14:51:22.643Z,81.74
2023-03-11T14:54:31.322Z,81.92
2023-03-11T14:57:18.840Z,82.08
2023-03-11T15:00:13.379Z,81.99
2023-03-11T15:02:47.721Z,82.19
2023-03-11T15:05:27.845Z,82.03
2023-03-11T15:08:01.195Z,82.15
2023-03-11T15:10:28.846Z,82.24
2023-03-11T15:13:25.547Z,82.09
2023-03-11T15:16:01.145Z,82.18
2023-03-11T15:18:37.665Z,82.06
2023-03-11T15:21:14.359Z,82.44
2023-03-11T15:23:49.458Z,82.25
2023-03-11T15:26:26.453Z,82.62
2023-03-11T15:29:01.920Z,82.64
2023-03-11T15:31:37.518Z,82.54
2023-03-11T15:34:22.257Z,82.44
2023-03-11T15:36:49.466Z,83.00
2023-03-11T15:39:25.666Z,82.72
2023-03-11T15:41:59.140Z,83.05
2023-03-11T15:44:33.738Z,83.09
2023-03-11T15:47:01.529Z,83.15
2023-03-11T15:49:30.021Z,83.21
2023-03-11T15:52:03.837Z,82.88
2023-03-11T15:54:30.868Z,83.06
2023-03-11T15:57:01.621Z,82.89
2023-03-11T15:59:31.797Z,82.91
2023-03-11T16:02:00.145Z,82.82
2023-03-11T16:04:27.700Z,82.70
2023-03-11T16:07:07.374Z,82.75
2023-03-11T16:09:35.845Z,82.03
2023-03-11T16:12:10.370Z,82.17
2023-03-11T16:14:37.759Z,81.96
2023-03-11T16:17:04.842Z,82.39
2023-03-11T16:19:33.219Z,81.98
2023-03-11T16:22:00.935Z,82.27
2023-03-11T16:24:28.265Z,82.37
2023-03-11T16:26:55.361Z,82.21
2023-03-11T16:29:24.059Z,82.54
2023-03-11T16:31:55.312Z,82.49
2023-03-11T16:34:22.662Z,82.71
2023-03-11T16:36:50.250Z,82.85
2023-03-11T16:39:17.143Z,82.89
2023-03-11T16:41:45.709Z,82.60
2023-03-11T16:44:12.956Z,82.73
2023-03-11T16:46:39.939Z,82.28
2023-03-11T16:49:07.366Z,82.86
2023-03-11T16:51:34.650Z,83.12
2023-03-11T16:54:02.837Z,82.87
2023-03-11T16:56:30.534Z,82.53
2023-03-11T16:58:57.520Z,82.22
2023-03-11T17:01:24.917Z,82.50
2023-03-11T17:03:52.687Z,82.47
2023-03-11T17:06:20.827Z,82.23
2023-03-11T17:08:50.124Z,82.38
2023-03-11T17:11:23.399Z,82.29
2023-03-11T17:13:51.408Z,82.49
2023-03-11T17:16:18.691Z,82.36
2023-03-11T17:18:46.453Z,82.13
2023-03-11T17:21:15.909Z,82.51
2023-03-11T17:23:43.805Z,82.62
2023-03-11T17:26:17.619Z,82.17
2023-03-11T17:28:44.688Z,82.40
2023-03-11T17:31:13.929Z,82.27
2023-03-11T17:33:42.522Z,82.40
2023-03-11T17:36:14.459Z,82.01
2023-03-11T17:38:41.979Z,81.94
2023-03-11T17:41:18.785Z,81.87
2023-03-11T17:43:46.756Z,82.18
2023-03-11T17:46:17.142Z,81.56
2023-03-11T17:48:48.306Z,81.74
2023-03-11T17:51:18.190Z,81.86
2023-03-11T17:53:49.583Z,81.88
2023-03-11T17:56:20.698Z,81.89
2023-03-11T17:58:49.255Z,81.86
2023-03-11T18:01:23.202Z,82.18
2023-03-11T18:03:50.973Z,81.70
2023-03-11T18:06:19.905Z,81.80
2023-03-11T18:08:47.134Z,81.77
2023-03-11T18:11:19.036Z,81.42
2023-03-11T18:13:46.784Z,81.59
2023-03-11T18:16:17.490Z,81.71
2023-03-11T18:18:45.192Z,82.13
2023-03-11T18:21:16.201Z,81.92
2023-03-11T18:23:43.869Z,82.04
2023-03-11T18:26:13.774Z,81.81
2023-03-11T18:28:42.154Z,81.51
2023-03-11T18:31:15.466Z,81.57
2023-03-11T18:33:47.109Z,81.68
2023-03-11T18:36:16.988Z,81.69
2023-03-11T18:38:44.317Z,81.21
2023-03-11T18:41:11.655Z,81.29
2023-03-11T18:43:39.895Z,81.27
2023-03-11T18:46:12.497Z,81.05
2023-03-11T18:48:40.327Z,81.28
2023-03-11T18:51:08.944Z,81.74
2023-03-11T18:53:37.216Z,81.35
2023-03-11T18:56:07.029Z,81.30
2023-03-11T18:58:35.118Z,81.10
2023-03-11T19:01:12.934Z,81.39
2023-03-11T19:03:42.236Z,81.35
2023-03-11T19:06:10.768Z,81.50
2023-03-11T19:08:38.233Z,81.63
2023-03-11T19:11:10.829Z,81.15
2023-03-11T19:13:47.671Z,81.15
2023-03-11T19:16:17.653Z,81.04
2023-03-11T19:18:44.959Z,80.97
2023-03-11T19:21:14.543Z,81.09
2023-03-11T19:23:42.184Z,81.16
2023-03-11T19:26:09.788Z,80.85
2023-03-11T19:28:37.487Z,81.12
2023-03-11T19:31:05.762Z,81.08
2023-03-11T19:33:35.164Z,81.17
2023-03-11T19:36:04.697Z,81.03
2023-03-11T19:38:32.354Z,80.50
2023-03-11T19:41:05.574Z,81.11
2023-03-11T19:43:33.745Z,80.86
2023-03-11T19:46:00.836Z,80.43
2023-03-11T19:48:28.380Z,80.23
2023-03-11T19:50:56.084Z,80.33
2023-03-11T19:53:23.802Z,80.66
2023-03-11T19:55:53.608Z,80.88
2023-03-11T19:58:22.435Z,80.77
2023-03-11T20:00:49.744Z,80.58
2023-03-11T20:03:17.262Z,80.68
2023-03-11T20:05:46.877Z,80.76
2023-03-11T20:08:17.803Z,80.86
2023-03-11T20:10:47.784Z,80.80
2023-03-11T20:13:17.273Z,80.92
2023-03-11T20:15:44.718Z,80.94
2023-03-11T20:18:12.429Z,81.05
2023-03-11T20:20:43.464Z,81.03
2023-03-11T20:23:12.036Z,81.04
2023-03-11T20:25:41.858Z,81.23
2023-03-11T20:28:09.986Z,81.30
2023-03-11T20:30:39.256Z,81.20
2023-03-11T20:33:07.685Z,81.32
2023-03-11T20:35:35.652Z,81.26
2023-03-11T20:38:03.402Z,81.44
2023-03-11T20:40:31.056Z,81.78
2023-03-11T20:42:58.411Z,81.55
2023-03-11T20:45:25.498Z,81.75
2023-03-11T20:47:54.556Z,81.97
2023-03-11T20:50:22.793Z,81.36
2023-03-11T20:52:51.002Z,81.50
2023-03-11T20:55:18.980Z,81.49
2023-03-11T20:57:46.942Z,81.91
2023-03-11T21:00:14.554Z,81.54
2023-03-11T21:02:43.444Z,81.81
2023-03-11T21:05:14.069Z,82.15
2023-03-11T21:07:41.940Z,82.07
2023-03-11T21:10:12.441Z,81.95
2023-03-11T21:12:39.721Z,81.50
2023-03-11T21:15:08.863Z,81.87
2023-03-11T21:17:37.647Z,81.75
2023-03-11T21:20:06.574Z,81.84
2023-03-11T21:22:34.331Z,81.57
2023-03-11T21:25:02.830Z,81.80
2023-03-11T21:27:30.199Z,81.57
2023-03-11T21:29:59.391Z,81.93
2023-03-11T21:32:28.749Z,81.71
2023-03-11T21:35:00.751Z,81.63
2023-03-11T21:37:30.413Z,81.53
2023-03-11T21:39:57.528Z,81.26
2023-03-11T21:42:28.587Z,81.49
2023-03-11T21:44:55.932Z,81.56
2023-03-11T21:47:23.333Z,81.58
2023-03-11T21:49:51.153Z,81.68
2023-03-11T21:52:18.481Z,81.71
2023-03-11T21:54:45.749Z,81.77
2023-03-11T21:57:12.880Z,81.43
2023-03-11T21:59:39.964Z,81.48
2023-03-11T22:02:09.629Z,81.97
2023-03-11T22:04:37.836Z,81.78
2023-03-11T22:07:05.445Z,81.79
2023-03-11T22:09:32.991Z,81.75
2023-03-11T22:12:01.001Z,81.41
2023-03-11T22:14:28.531Z,81.37
2023-03-11T22:16:56.515Z,81.33
2023-03-11T22:19:24.267Z,81.31
2023-03-11T22:21:51.279Z,81.54
2023-03-11T22:24:18.430Z,81.22
2023-03-11T22:26:45.880Z,81.27
2023-03-11T22:29:13.811Z,81.36
2023-03-11T22:31:41.182Z,81.31
2023-03-11T22:34:08.496Z,81.48
2023-03-11T22:36:37.446Z,81.48
2023-03-11T22:39:05.240Z,81.41
2023-03-11T22:41:33.094Z,81.56
2023-03-11T22:44:00.761Z,81.44
2023-03-11T22:46:28.002Z,81.41
2023-03-11T22:48:56.268Z,81.38
2023-03-11T22:51:23.525Z,81.78
2023-03-11T22:53:51.108Z,81.77
2023-03-11T22:56:19.221Z,81.71
2023-03-11T22:58:46.900Z,81.73
2023-03-11T23:01:14.255Z,81.68
2023-03-11T23:03:43.456Z,81.66
2023-03-11T23:06:14.670Z,81.86
2023-03-11T23:08:42.218Z,81.41
2023-03-11T23:11:12.073Z,81.58
2023-03-11T23:13:41.838Z,81.23
2023-03-11T23:16:14.872Z,81.83
2023-03-11T23:18:43.859Z,81.55
2023-03-11T23:21:25.512Z,81.54
2023-03-11T23:23:53.620Z,81.61
2023-03-11T23:26:22.532Z,81.45
2023-03-11T23:28:54.208Z,81.40
2023-03-11T23:31:24.412Z,81.44
2023-03-11T23:33:52.274Z,81.47
2023-03-11T23:36:22.206Z,81.54
2023-03-11T23:38:51.386Z,81.02
2023-03-11T23:41:21.121Z,81.58
2023-03-11T23:43:48.257Z,81.48
2023-03-11T23:46:16.482Z,81.23
2023-03-11T23:48:43.624Z,81.28
2023-03-11T23:51:14.025Z,81.31
2023-03-11T23:53:41.883Z,81.52
2023-03-11T23:56:19.016Z,81.38
2023-03-11T23:58:47.598Z,81.53
